Time;durP1;ratioP1;P1;durP2;ratioP2;P2;SDS_P1;SDS_P2;PMS_P1;PMS_P2;Temp;Humidity;BMP_temperature;BMP_pressure;BME280_temperature;BME280_humidity;BME280_pressure;Samples;Min_cycle;Max_cycle;Signal;HPM_P1;HPM_P2
2022/06/01 03:00:48;;;;;;;0.80;0.60;;;14.30;76.50;;;;;;5897760;23;20848;-74
2022/06/01 03:03:15;;;;;;;0.80;0.70;;;14.30;77.10;;;;;;4975540;28;20847;-73
2022/06/01 03:05:41;;;;;;;0.70;0.60;;;14.40;76.80;;;;;;4976083;28;20996;-72
2022/06/01 03:08:10;;;;;;;0.80;0.60;;;14.50;76.30;;;;;;4976481;28;20450;-72
2022/06/01 03:10:37;;;;;;;0.70;0.60;;;14.50;76.10;;;;;;4976306;28;20446;-72
2022/06/01 03:13:04;;;;;;;1.10;0.87;;;14.50;76.30;;;;;;4976287;28;20508;-72
2022/06/01 03:15:31;;;;;;;0.70;0.60;;;14.40;76.70;;;;;;5000713;23;20585;-68
2022/06/01 03:17:59;;;;;;;0.80;0.70;;;14.50;76.50;;;;;;4975817;28;20439;-67
2022/06/01 03:20:27;;;;;;;0.70;0.60;;;14.30;77.00;;;;;;4975826;28;20473;-69
2022/06/01 03:22:55;;;;;;;0.70;0.60;;;14.30;76.70;;;;;;4975786;28;20500;-69
2022/06/01 03:25:24;;;;;;;0.70;0.60;;;14.30;77.00;;;;;;4975588;28;20549;-67
2022/06/01 03:27:51;;;;;;;1.03;0.60;;;14.40;76.70;;;;;;4975610;28;20521;-68
2022/06/01 03:30:19;;;;;;;0.70;0.70;;;14.50;76.50;;;;;;4975617;28;20512;-67
2022/06/01 03:32:47;;;;;;;0.80;0.70;;;14.50;76.30;;;;;;4975287;28;20877;-68
2022/06/01 03:35:17;;;;;;;0.70;0.70;;;14.50;76.60;;;;;;4975137;28;20577;-68
2022/06/01 03:37:44;;;;;;;1.13;0.63;;;14.60;76.30;;;;;;4975532;28;20434;-68
2022/06/01 03:40:12;;;;;;;0.70;0.67;;;14.30;76.80;;;;;;4975528;28;20454;-68
2022/06/01 03:42:39;;;;;;;0.80;0.60;;;14.10;77.70;;;;;;4975345;28;20446;-68
2022/06/01 03:47:52;;;;;;;0.70;0.70;;;13.90;78.70;;;;;;4975189;28;20421;-67
2022/06/01 03:50:20;;;;;;;0.70;0.50;;;14.00;78.60;;;;;;4975275;28;20861;-69
2022/06/01 03:52:46;;;;;;;0.70;0.60;;;14.00;78.50;;;;;;4975229;28;20450;-69
2022/06/01 03:55:14;;;;;;;0.70;0.70;;;14.00;78.50;;;;;;4975115;28;20520;-69
2022/06/01 03:57:42;;;;;;;0.80;0.60;;;14.00;78.60;;;;;;4975145;28;20541;-68
2022/06/01 04:00:11;;;;;;;0.70;0.70;;;14.00;78.70;;;;;;4975020;28;20540;-68
2022/06/01 04:02:37;;;;;;;0.70;0.70;;;14.10;78.30;;;;;;4974952;28;20814;-68
2022/06/01 04:05:05;;;;;;;0.70;0.70;;;14.10;78.10;;;;;;4975115;28;21091;-68
2022/06/01 04:07:33;;;;;;;0.77;0.67;;;14.10;78.40;;;;;;4975039;28;20500;-68
2022/06/01 04:10:00;;;;;;;0.70;0.60;;;14.10;78.40;;;;;;4974883;28;20454;-69
2022/06/01 04:12:27;;;;;;;0.70;0.67;;;14.20;78.20;;;;;;4975080;28;20528;-68
2022/06/01 04:14:53;;;;;;;0.80;0.70;;;14.30;77.90;;;;;;4974508;28;20541;-69
2022/06/01 04:17:20;;;;;;;0.73;0.60;;;14.40;77.60;;;;;;4974335;28;20833;-68
2022/06/01 04:19:47;;;;;;;0.70;0.70;;;14.30;77.80;;;;;;4974797;28;20446;-68
2022/06/01 04:22:15;;;;;;;0.70;0.60;;;14.50;77.70;;;;;;4974746;28;20450;-68
2022/06/01 04:24:43;;;;;;;0.70;0.60;;;14.70;76.90;;;;;;4974599;28;20490;-68
2022/06/01 04:27:10;;;;;;;0.70;0.60;;;14.50;77.10;;;;;;4974542;28;20450;-69
2022/06/01 04:29:37;;;;;;;0.70;0.60;;;14.70;77.20;;;;;;4974705;28;20457;-69
2022/06/01 04:32:06;;;;;;;0.70;0.60;;;14.80;76.50;;;;;;4974598;28;20450;-69
2022/06/01 04:34:33;;;;;;;0.70;0.70;;;14.70;76.90;;;;;;4974554;28;20474;-69
2022/06/01 04:37:00;;;;;;;0.80;0.80;;;14.80;76.50;;;;;;4974584;28;20454;-69
2022/06/01 04:39:26;;;;;;;0.67;0.60;;;14.70;77.00;;;;;;4974498;28;20500;-69
2022/06/01 04:41:54;;;;;;;0.70;0.60;;;14.60;76.90;;;;;;4974403;28;20454;-69
2022/06/01 04:44:21;;;;;;;0.70;0.70;;;14.80;77.10;;;;;;4974177;28;20459;-69
2022/06/01 04:46:48;;;;;;;0.80;0.70;;;15.00;76.40;;;;;;4973947;28;20489;-69
2022/06/01 04:49:15;;;;;;;0.90;0.80;;;15.10;75.90;;;;;;4974315;28;20446;-69
2022/06/01 04:51:42;;;;;;;0.90;0.63;;;15.30;75.70;;;;;;4974303;28;20443;-68
2022/06/01 04:54:08;;;;;;;0.70;0.60;;;15.30;75.10;;;;;;4973961;28;20937;-69
2022/06/01 04:56:35;;;;;;;0.70;0.60;;;15.30;75.50;;;;;;4974342;28;20446;-69
2022/06/01 04:59:03;;;;;;;0.70;0.60;;;15.30;75.30;;;;;;4973962;28;20938;-69
2022/06/01 05:01:30;;;;;;;1.00;0.60;;;15.30;75.40;;;;;;4974287;28;20445;-68
2022/06/01 05:03:57;;;;;;;0.70;0.63;;;15.20;75.70;;;;;;4974189;28;20453;-68
2022/06/01 05:06:24;;;;;;;0.70;0.50;;;15.40;76.00;;;;;;4974089;28;20486;-69
2022/06/01 05:08:51;;;;;;;0.70;0.60;;;15.50;75.00;;;;;;4974244;28;20489;-68
2022/06/01 05:11:19;;;;;;;0.70;0.60;;;15.50;75.30;;;;;;4974195;28;20505;-68
2022/06/01 05:13:46;;;;;;;0.70;0.70;;;15.60;75.10;;;;;;4974122;28;20457;-69
2022/06/01 05:16:14;;;;;;;0.70;0.60;;;15.80;75.10;;;;;;4973989;28;20540;-69
2022/06/01 05:18:41;;;;;;;0.70;0.60;;;15.70;75.70;;;;;;4974199;28;20528;-69
2022/06/01 05:21:08;;;;;;;0.70;0.60;;;16.00;75.10;;;;;;4974424;28;20541;-69
2022/06/01 05:23:35;;;;;;;0.70;0.70;;;16.00;74.90;;;;;;4975256;28;20489;-70
2022/06/01 05:26:02;;;;;;;0.70;0.60;;;16.10;74.40;;;;;;4976251;28;20532;-68
2022/06/01 05:28:30;;;;;;;0.83;0.83;;;16.20;74.90;;;;;;4978537;28;20449;-70
2022/06/01 05:30:58;;;;;;;0.70;0.60;;;16.30;74.10;;;;;;4978856;28;20449;-69
2022/06/01 05:33:26;;;;;;;0.70;0.70;;;16.20;74.10;;;;;;4978034;28;20964;-69
2022/06/01 05:35:53;;;;;;;0.80;0.60;;;16.20;74.20;;;;;;4978325;28;20524;-69
2022/06/01 05:38:20;;;;;;;0.70;0.60;;;16.20;75.40;;;;;;4978447;28;20562;-70
2022/06/01 05:40:47;;;;;;;0.70;0.60;;;16.40;74.50;;;;;;4978300;28;20520;-69
2022/06/01 05:43:15;;;;;;;0.70;0.60;;;16.30;74.60;;;;;;4978209;28;20535;-70
2022/06/01 05:45:42;;;;;;;0.70;0.70;;;16.50;75.20;;;;;;4977526;28;20552;-68
2022/06/01 05:48:10;;;;;;;0.70;0.53;;;16.70;74.40;;;;;;4977178;28;20945;-68
2022/06/01 05:50:39;;;;;;;0.70;0.60;;;16.90;74.30;;;;;;4977451;28;20454;-69
2022/06/01 05:53:07;;;;;;;0.70;0.60;;;17.10;73.40;;;;;;4977477;28;20516;-68
2022/06/01 05:55:35;;;;;;;1.20;0.70;;;17.30;73.40;;;;;;4976997;28;20893;-68
2022/06/01 05:58:01;;;;;;;0.70;0.60;;;17.50;72.40;;;;;;4977377;28;20476;-68
2022/06/01 06:00:28;;;;;;;0.73;0.60;;;17.50;72.20;;;;;;4977524;28;20441;-70
2022/06/01 06:02:55;;;;;;;0.80;0.60;;;17.70;72.40;;;;;;4977289;28;20501;-68
2022/06/01 06:08:08;;;;;;;0.70;0.60;;;18.00;70.60;;;;;;4977174;28;20410;-68
2022/06/01 06:10:35;;;;;;;0.70;0.70;;;17.90;71.20;;;;;;4977018;28;20497;-68
2022/06/01 06:13:01;;;;;;;0.70;0.60;;;18.20;70.20;;;;;;4977015;28;20454;-69
2022/06/01 06:15:28;;;;;;;0.80;0.60;;;18.20;70.00;;;;;;4976797;28;20540;-69
2022/06/01 06:17:55;;;;;;;0.70;0.60;;;17.90;71.10;;;;;;4977009;28;20449;-69
2022/06/01 06:20:21;;;;;;;0.60;0.60;;;18.00;70.60;;;;;;4976978;28;20446;-69
2022/06/01 06:22:48;;;;;;;0.80;0.80;;;18.20;70.90;;;;;;4976959;28;20454;-69
2022/06/01 06:25:16;;;;;;;0.80;0.70;;;18.50;69.90;;;;;;4976949;28;20470;-69
2022/06/01 06:27:43;;;;;;;0.70;0.60;;;18.20;70.10;;;;;;4976770;28;20481;-69
2022/06/01 06:30:11;;;;;;;0.80;0.70;;;18.20;70.50;;;;;;4978910;28;20505;-68
2022/06/01 06:32:38;;;;;;;0.70;0.60;;;18.30;69.70;;;;;;4976550;28;20549;-69
2022/06/01 06:35:05;;;;;;;0.90;0.60;;;18.30;70.30;;;;;;4976395;28;20470;-70
2022/06/01 06:37:31;;;;;;;0.70;0.63;;;18.50;70.50;;;;;;4974884;28;20827;-69
2022/06/01 06:39:58;;;;;;;0.67;0.53;;;18.70;70.70;;;;;;4976452;28;20516;-68
2022/06/01 06:42:26;;;;;;;0.80;0.67;;;19.10;68.60;;;;;;4976487;28;20446;-69
2022/06/01 06:44:53;;;;;;;0.70;0.60;;;18.80;68.60;;;;;;4976416;28;20465;-70
2022/06/01 06:47:20;;;;;;;0.70;0.60;;;19.20;69.20;;;;;;4976252;28;20497;-70
2022/06/01 06:49:46;;;;;;;0.80;0.70;;;19.30;68.20;;;;;;4976895;28;20460;-69
2022/06/01 06:52:13;;;;;;;0.73;0.60;;;19.30;67.50;;;;;;4976694;28;20453;-69
2022/06/01 06:54:40;;;;;;;0.70;0.60;;;19.40;68.00;;;;;;4976293;28;20529;-69
2022/06/01 06:57:07;;;;;;;0.70;0.60;;;19.60;66.60;;;;;;4976374;28;20446;-69
2022/06/01 06:59:36;;;;;;;0.70;0.60;;;19.80;66.90;;;;;;4976187;28;20442;-69
2022/06/01 07:02:03;;;;;;;0.70;0.60;;;19.80;66.30;;;;;;4976004;28;20457;-68
2022/06/01 07:04:30;;;;;;;0.70;0.57;;;20.10;66.20;;;;;;4975733;28;20533;-69
2022/06/01 07:06:57;;;;;;;0.80;0.60;;;20.10;64.70;;;;;;4976025;28;20513;-68
2022/06/01 07:09:24;;;;;;;0.70;0.60;;;20.30;65.20;;;;;;4975986;28;20882;-69
2022/06/01 07:11:50;;;;;;;0.70;0.60;;;20.60;63.90;;;;;;4976825;28;20777;-69
2022/06/01 07:14:17;;;;;;;0.70;0.63;;;20.80;65.50;;;;;;4975448;28;21017;-69
2022/06/01 07:16:45;;;;;;;0.67;0.60;;;20.70;63.30;;;;;;4975965;28;20440;-68
2022/06/01 07:19:12;;;;;;;0.70;0.60;;;21.10;63.10;;;;;;4975530;28;20450;-69
2022/06/01 07:21:39;;;;;;;0.70;0.60;;;21.10;61.90;;;;;;4976142;28;20624;-69
2022/06/01 07:24:07;;;;;;;0.70;0.63;;;20.80;62.30;;;;;;4975670;28;20461;-69
2022/06/01 07:26:36;;;;;;;0.70;0.60;;;20.70;63.60;;;;;;4976142;28;20560;-69
2022/06/01 07:29:03;;;;;;;0.90;0.70;;;21.00;62.40;;;;;;4976315;28;20445;-68
2022/06/01 07:31:30;;;;;;;0.70;0.60;;;21.20;62.70;;;;;;4975137;28;20890;-68
2022/06/01 07:33:59;;;;;;;0.70;0.70;;;21.20;60.20;;;;;;4975591;28;20497;-68
2022/06/01 07:36:27;;;;;;;0.70;0.63;;;20.90;62.10;;;;;;4975305;28;20549;-69
2022/06/01 07:44:31;;;;;;;0.80;0.60;;;20.80;61.70;;;;;;4975480;28;20449;-69
2022/06/01 07:46:58;;;;;;;0.70;0.60;;;20.30;63.00;;;;;;4975183;28;20474;-69
2022/06/01 07:49:27;;;;;;;0.70;0.60;;;20.20;63.20;;;;;;4974704;28;20460;-69
2022/06/01 07:51:54;;;;;;;0.70;0.60;;;20.30;62.70;;;;;;4975100;28;20446;-69
2022/06/01 07:54:22;;;;;;;0.70;0.60;;;20.40;62.80;;;;;;4975033;28;20533;-69
2022/06/01 07:56:48;;;;;;;0.70;0.60;;;20.30;62.30;;;;;;4975042;28;20448;-69
2022/06/01 07:59:15;;;;;;;0.80;0.63;;;20.60;62.00;;;;;;4975038;28;20472;-69
2022/06/01 08:01:42;;;;;;;0.70;0.63;;;20.80;60.70;;;;;;4974708;28;20953;-69
2022/06/01 08:04:09;;;;;;;0.80;0.60;;;21.10;61.40;;;;;;4974684;28;21000;-70
2022/06/01 08:06:39;;;;;;;0.70;0.60;;;21.20;59.50;;;;;;4974709;28;20996;-68
2022/06/01 08:09:08;;;;;;;0.70;0.60;;;21.60;56.50;;;;;;4975147;28;20524;-68
2022/06/01 08:14:19;;;;;;;0.90;0.53;;;21.70;55.20;;;;;;4974807;28;20413;-69
2022/06/01 08:16:46;;;;;;;0.90;0.70;;;21.90;51.80;;;;;;4974578;28;20893;-69
2022/06/01 08:19:14;;;;;;;0.70;0.60;;;22.10;49.30;;;;;;4975176;28;20446;-69
2022/06/01 08:21:42;;;;;;;0.67;0.50;;;22.50;49.40;;;;;;4975004;28;20446;-69
2022/06/01 08:24:09;;;;;;;0.80;0.60;;;22.60;49.60;;;;;;4974637;28;20625;-69
2022/06/01 08:26:36;;;;;;;0.70;0.60;;;22.50;48.70;;;;;;4974821;28;20631;-68
2022/06/01 08:29:03;;;;;;;0.70;0.60;;;22.50;49.90;;;;;;4974880;28;20450;-68
2022/06/01 08:31:30;;;;;;;0.83;0.57;;;22.50;52.10;;;;;;4974559;28;20917;-69
2022/06/01 08:33:57;;;;;;;1.10;0.77;;;22.70;51.00;;;;;;4974801;28;20456;-69
2022/06/01 08:36:24;;;;;;;0.87;0.50;;;22.70;48.30;;;;;;4974746;28;20466;-70
2022/06/01 08:38:52;;;;;;;1.10;0.60;;;22.80;48.80;;;;;;4974765;28;20482;-69
2022/06/01 08:41:22;;;;;;;0.60;0.50;;;22.90;49.20;;;;;;4974768;28;20449;-69
2022/06/01 08:43:52;;;;;;;0.93;0.63;;;23.10;49.60;;;;;;4974395;28;20934;-69
2022/06/01 08:46:21;;;;;;;0.60;0.50;;;23.40;48.50;;;;;;4974424;28;20580;-69
2022/06/01 08:48:50;;;;;;;1.10;0.60;;;23.30;46.50;;;;;;4974890;28;20450;-68
2022/06/01 08:51:19;;;;;;;0.90;0.70;;;23.10;47.80;;;;;;4974940;28;20505;-70
2022/06/01 08:53:45;;;;;;;0.90;0.60;;;22.80;48.10;;;;;;4974222;28;20976;-68
2022/06/01 08:56:17;;;;;;;0.70;0.60;;;22.50;48.60;;;;;;4974199;28;20893;-69
2022/06/01 08:58:54;;;;;;;1.30;0.60;;;22.40;49.60;;;;;;4974215;28;20837;-69
2022/06/01 09:01:26;;;;;;;1.10;0.60;;;22.40;48.00;;;;;;4973677;28;20442;-69
2022/06/01 09:04:05;;;;;;;1.33;0.60;;;22.90;48.80;;;;;;4974308;28;20844;-69
2022/06/01 09:06:37;;;;;;;0.60;0.50;;;23.10;46.70;;;;;;4974140;28;20520;-69
2022/06/01 09:09:10;;;;;;;0.70;0.60;;;23.00;46.70;;;;;;4973919;28;20771;-68
2022/06/01 09:11:38;;;;;;;0.70;0.60;;;23.20;47.70;;;;;;4974249;28;20430;-69
2022/06/01 09:14:09;;;;;;;1.33;0.50;;;23.60;47.40;;;;;;4974010;28;20536;-70
2022/06/01 09:16:39;;;;;;;0.90;0.60;;;23.80;48.90;;;;;;4999128;23;20832;-73
2022/06/01 09:19:11;;;;;;;0.70;0.60;;;24.10;47.30;;;;;;4974522;28;20450;-73
2022/06/01 09:24:28;;;;;;;1.23;0.60;;;24.10;46.70;;;;;;4974539;28;20945;-73
2022/06/01 09:26:58;;;;;;;0.60;0.50;;;24.20;43.70;;;;;;4974339;28;20490;-73
2022/06/01 09:29:28;;;;;;;0.67;0.50;;;24.40;44.30;;;;;;4974474;28;20533;-72
2022/06/01 09:32:01;;;;;;;2.50;0.53;;;24.60;43.70;;;;;;4974695;28;20545;-72
2022/06/01 09:34:36;;;;;;;0.60;0.50;;;24.40;43.10;;;;;;4974428;28;20509;-72
2022/06/01 09:37:08;;;;;;;0.60;0.50;;;24.30;44.50;;;;;;4974011;28;20905;-72
2022/06/01 09:39:37;;;;;;;0.70;0.60;;;24.50;44.30;;;;;;4974148;28;20485;-73
2022/06/01 09:42:25;;;;;;;0.70;0.60;;;24.60;43.20;;;;;;4974239;28;20445;-72
2022/06/01 09:44:53;;;;;;;0.60;0.50;;;24.50;42.70;;;;;;4974170;28;20438;-73
2022/06/01 09:47:39;;;;;;;0.70;0.60;;;24.50;44.10;;;;;;4973858;28;20481;-73
2022/06/01 09:50:20;;;;;;;0.80;0.60;;;24.40;44.00;;;;;;4974251;28;20850;-72
2022/06/01 09:52:48;;;;;;;0.73;0.57;;;24.50;42.20;;;;;;4973902;28;21004;-73
2022/06/01 09:55:17;;;;;;;0.70;0.50;;;24.60;40.10;;;;;;4974076;28;20521;-73
2022/06/01 09:57:45;;;;;;;1.37;0.60;;;24.70;40.80;;;;;;4974655;28;20438;-73
2022/06/01 10:06:11;;;;;;;0.60;0.50;;;24.80;39.60;;;;;;4973888;28;20453;-72
2022/06/01 10:08:42;;;;;;;0.60;0.50;;;24.90;40.30;;;;;;4974074;28;20430;-73
2022/06/01 10:11:26;;;;;;;0.70;0.60;;;25.20;40.80;;;;;;4974037;28;20438;-72
2022/06/01 10:14:01;;;;;;;0.63;0.50;;;25.10;39.90;;;;;;4977267;28;20918;-72
2022/06/01 10:16:36;;;;;;;0.60;0.50;;;25.20;38.90;;;;;;4976919;28;20477;-72
2022/06/01 10:19:08;;;;;;;0.70;0.60;;;25.20;39.30;;;;;;4977416;28;20426;-72
2022/06/01 10:21:48;;;;;;;0.60;0.50;;;25.30;40.10;;;;;;4977405;28;20493;-72
2022/06/01 10:24:20;;;;;;;0.60;0.50;;;25.40;39.80;;;;;;4977255;28;20629;-72
2022/06/01 10:26:52;;;;;;;0.70;0.60;;;25.50;39.80;;;;;;4977078;28;20576;-72
2022/06/01 10:29:25;;;;;;;0.60;0.50;;;25.30;36.90;;;;;;4977302;28;20435;-72
2022/06/01 10:31:56;;;;;;;0.70;0.50;;;25.10;37.30;;;;;;4977197;28;20490;-72
2022/06/01 10:34:27;;;;;;;0.70;0.60;;;24.80;38.80;;;;;;4977185;28;20438;-72
2022/06/01 10:36:58;;;;;;;0.70;0.50;;;25.00;39.20;;;;;;4977033;28;20466;-72
2022/06/01 10:39:33;;;;;;;0.60;0.50;;;25.10;39.00;;;;;;4977000;28;20441;-72
2022/06/01 10:42:05;;;;;;;0.67;0.57;;;24.90;40.10;;;;;;4976707;28;20443;-72
2022/06/01 10:44:41;;;;;;;0.60;0.50;;;25.00;41.70;;;;;;4976599;28;20962;-72
2022/06/01 10:47:14;;;;;;;0.60;0.60;;;25.20;41.50;;;;;;4976806;28;20520;-72
2022/06/01 10:49:48;;;;;;;0.60;0.50;;;25.10;39.80;;;;;;4976785;28;20430;-73
2022/06/01 10:52:24;;;;;;;0.60;0.50;;;25.20;39.90;;;;;;4976783;28;20516;-73
2022/06/01 10:55:03;;;;;;;0.60;0.50;;;25.50;40.10;;;;;;4976581;28;20434;-72
2022/06/01 10:57:30;;;;;;;0.60;0.50;;;25.50;39.40;;;;;;4976574;28;20441;-72
2022/06/01 10:59:59;;;;;;;0.70;0.57;;;25.50;38.60;;;;;;4976493;28;20450;-73
2022/06/01 11:02:56;;;;;;;0.60;0.50;;;25.50;38.70;;;;;;4977608;28;20464;-73
2022/06/01 11:05:31;;;;;;;0.77;0.60;;;25.00;39.00;;;;;;4977192;28;20528;-72
2022/06/01 11:08:30;;;;;;;0.77;0.50;;;24.50;39.10;;;;;;4977746;28;20465;-72
2022/06/01 11:11:08;;;;;;;1.00;0.60;;;24.30;40.40;;;;;;4969952;28;20454;-74
2022/06/01 11:13:47;;;;;;;0.60;0.50;;;24.40;40.70;;;;;;4977185;28;20419;-73
2022/06/01 11:16:28;;;;;;;0.70;0.60;;;24.70;40.40;;;;;;4978457;28;20462;-72
2022/06/01 11:19:06;;;;;;;0.70;0.50;;;24.80;39.80;;;;;;4977921;28;20454;-73
2022/06/01 11:21:40;;;;;;;0.60;0.50;;;24.90;39.80;;;;;;4977608;28;20450;-73
2022/06/01 11:24:46;;;;;;;0.73;0.60;;;25.00;39.00;;;;;;4976998;28;20442;-72
2022/06/01 11:27:24;;;;;;;0.60;0.53;;;25.00;39.90;;;;;;4977491;28;20470;-72
2022/06/01 11:30:04;;;;;;;0.67;0.50;;;25.30;40.10;;;;;;4977316;28;20442;-73
2022/06/01 11:32:38;;;;;;;1.47;0.50;;;25.50;37.40;;;;;;4977946;28;20492;-73
2022/06/01 11:35:12;;;;;;;0.80;0.50;;;25.70;38.00;;;;;;4977931;28;20536;-72
2022/06/01 11:37:45;;;;;;;0.90;0.50;;;25.60;37.80;;;;;;4977111;28;20438;-73
2022/06/01 11:40:19;;;;;;;0.70;0.60;;;25.10;38.20;;;;;;4978365;28;20934;-72
2022/06/01 11:42:55;;;;;;;0.60;0.50;;;24.90;38.90;;;;;;4977699;28;20860;-73
2022/06/01 11:45:32;;;;;;;0.67;0.60;;;25.10;39.70;;;;;;4977632;28;20474;-74
2022/06/01 11:48:05;;;;;;;0.80;0.60;;;25.10;37.20;;;;;;4977457;28;20549;-73
2022/06/01 11:50:57;;;;;;;0.60;0.50;;;24.70;41.10;;;;;;4978461;28;20784;-74
2022/06/01 11:53:32;;;;;;;0.60;0.50;;;24.70;41.30;;;;;;4978049;28;20435;-74
2022/06/01 11:56:24;;;;;;;0.60;0.50;;;25.00;39.70;;;;;;4978082;28;20508;-74
2022/06/01 11:59:06;;;;;;;0.60;0.50;;;25.30;37.60;;;;;;4977760;28;20439;-74
2022/06/01 12:01:37;;;;;;;0.60;0.50;;;25.60;38.00;;;;;;4977472;28;20412;-74
2022/06/01 12:04:22;;;;;;;0.77;0.50;;;26.00;39.00;;;;;;4977501;28;20438;-74
2022/06/01 12:06:57;;;;;;;0.73;0.60;;;26.30;37.50;;;;;;4976488;28;20557;-74
2022/06/01 12:09:41;;;;;;;0.60;0.50;;;26.20;36.40;;;;;;4977237;28;20915;-74
2022/06/01 12:12:25;;;;;;;0.60;0.50;;;25.80;36.70;;;;;;4978583;28;20786;-74
2022/06/01 12:15:06;;;;;;;0.60;0.50;;;25.70;37.10;;;;;;4976692;28;20458;-74
2022/06/01 12:17:38;;;;;;;0.83;0.60;;;25.50;37.60;;;;;;4977105;28;20471;-74
2022/06/01 12:20:45;;;;;;;0.60;0.50;;;25.60;39.00;;;;;;4977304;28;20419;-74
2022/06/01 12:29:36;;;;;;;0.70;0.60;;;26.00;38.50;;;;;;4976288;28;20406;-72
2022/06/01 12:32:10;;;;;;;0.70;0.50;;;26.40;38.40;;;;;;4976734;28;20855;-72
2022/06/01 12:34:47;;;;;;;0.60;0.50;;;26.00;38.70;;;;;;4974770;28;20942;-72
2022/06/01 12:37:21;;;;;;;0.70;0.60;;;26.20;40.00;;;;;;4974643;28;20429;-75
2022/06/01 12:39:55;;;;;;;0.70;0.60;;;25.90;38.30;;;;;;4976006;28;20435;-72
2022/06/01 12:42:28;;;;;;;0.70;0.50;;;25.70;38.20;;;;;;4975894;28;20801;-72
2022/06/01 12:44:57;;;;;;;0.60;0.50;;;25.30;39.10;;;;;;4976175;28;20862;-73
2022/06/01 12:47:25;;;;;;;0.60;0.50;;;25.40;38.50;;;;;;4975416;28;20871;-73
2022/06/01 12:49:52;;;;;;;1.03;0.60;;;25.40;40.00;;;;;;4975703;28;20458;-73
2022/06/01 12:52:21;;;;;;;0.60;0.50;;;25.70;39.40;;;;;;4975936;28;20477;-73
2022/06/01 12:55:00;;;;;;;0.70;0.50;;;25.70;38.50;;;;;;4976496;28;20457;-73
2022/06/01 12:57:30;;;;;;;0.70;0.60;;;25.40;39.40;;;;;;4975749;28;20441;-72
2022/06/01 13:00:00;;;;;;;0.70;0.60;;;24.90;39.20;;;;;;4975707;28;20457;-72
2022/06/01 13:02:28;;;;;;;0.83;0.60;;;24.50;41.10;;;;;;4975638;28;20457;-73
2022/06/01 13:04:57;;;;;;;0.73;0.50;;;24.40;41.10;;;;;;4975831;28;20513;-72
2022/06/01 13:07:29;;;;;;;0.60;0.53;;;24.40;42.90;;;;;;4975632;28;20486;-73
2022/06/01 13:10:04;;;;;;;0.60;0.50;;;24.40;41.70;;;;;;4976684;28;20439;-72
2022/06/01 13:12:33;;;;;;;0.70;0.53;;;24.40;41.60;;;;;;4976504;28;20438;-73
2022/06/01 13:15:16;;;;;;;0.70;0.50;;;24.20;42.60;;;;;;4975633;28;20493;-73
2022/06/01 13:17:51;;;;;;;1.27;0.70;;;24.20;44.00;;;;;;4975311;28;20451;-72
2022/06/01 13:20:23;;;;;;;0.70;0.50;;;24.20;42.60;;;;;;4976538;28;20461;-72
2022/06/01 13:22:53;;;;;;;0.60;0.50;;;24.10;43.20;;;;;;4976711;28;20449;-72
2022/06/01 13:25:25;;;;;;;0.90;0.70;;;24.00;43.70;;;;;;4975874;28;20473;-72
2022/06/01 13:27:54;;;;;;;0.70;0.60;;;23.80;44.20;;;;;;4977074;28;20505;-72
2022/06/01 13:30:22;;;;;;;0.60;0.50;;;24.00;43.30;;;;;;4974386;28;20454;-72
2022/06/01 13:32:51;;;;;;;0.70;0.53;;;24.20;43.90;;;;;;4974111;28;20504;-72
2022/06/01 13:35:32;;;;;;;0.70;0.50;;;24.40;43.60;;;;;;4974014;28;20474;-72
2022/06/01 13:38:00;;;;;;;0.93;0.60;;;24.40;43.40;;;;;;4974162;28;20430;-72
2022/06/01 13:40:30;;;;;;;0.70;0.60;;;24.60;45.60;;;;;;4974092;28;20458;-72
2022/06/01 13:43:03;;;;;;;0.70;0.60;;;24.90;43.70;;;;;;4975125;28;20501;-72
2022/06/01 13:45:39;;;;;;;0.70;0.50;;;24.70;43.70;;;;;;4974012;28;20521;-72
2022/06/01 13:48:08;;;;;;;0.70;0.60;;;25.10;44.90;;;;;;4977021;28;20939;-72
2022/06/01 13:50:42;;;;;;;0.60;0.50;;;25.20;42.80;;;;;;4977739;28;20540;-72
2022/06/01 13:53:14;;;;;;;1.20;0.60;;;25.40;42.70;;;;;;4977695;28;20569;-72
2022/06/01 13:56:09;;;;;;;0.77;0.50;;;25.10;43.00;;;;;;4977609;28;20528;-72
2022/06/01 13:58:41;;;;;;;0.70;0.60;;;25.20;44.10;;;;;;4968114;28;20984;-72
2022/06/01 14:01:12;;;;;;;0.70;0.50;;;25.40;42.40;;;;;;4977895;28;20430;-72
2022/06/01 14:03:45;;;;;;;0.60;0.50;;;25.40;43.90;;;;;;4977544;28;20430;-72
2022/06/01 14:06:13;;;;;;;0.70;0.60;;;25.00;42.40;;;;;;4977404;28;20528;-71
2022/06/01 14:08:47;;;;;;;0.60;0.50;;;24.60;43.60;;;;;;4977362;28;20576;-72
2022/06/01 14:11:21;;;;;;;0.60;0.50;;;24.60;43.70;;;;;;4977073;28;20937;-72
2022/06/01 14:13:48;;;;;;;0.60;0.50;;;24.30;44.50;;;;;;4977034;28;20905;-72
2022/06/01 14:16:17;;;;;;;0.70;0.60;;;24.20;43.90;;;;;;4976919;28;20568;-72
2022/06/01 14:18:51;;;;;;;0.70;0.60;;;24.20;45.80;;;;;;4977165;28;20446;-72
2022/06/01 14:21:18;;;;;;;0.70;0.60;;;24.20;44.10;;;;;;4977304;28;20448;-72
2022/06/01 14:23:44;;;;;;;0.60;0.50;;;24.30;44.90;;;;;;4977183;28;20446;-71
2022/06/01 14:28:57;;;;;;;0.60;0.53;;;24.60;45.60;;;;;;4977072;28;20835;-72
2022/06/01 14:31:27;;;;;;;0.60;0.50;;;24.70;44.20;;;;;;4976695;28;20945;-72
2022/06/01 14:33:55;;;;;;;0.80;0.60;;;24.70;44.40;;;;;;4977009;28;20489;-72
2022/06/01 14:36:22;;;;;;;0.70;0.50;;;24.60;45.40;;;;;;4976818;28;20473;-72
2022/06/01 14:38:50;;;;;;;0.70;0.60;;;24.80;45.30;;;;;;4976580;28;20941;-72
2022/06/01 14:41:26;;;;;;;0.70;0.50;;;25.20;44.40;;;;;;4976867;28;20453;-72
2022/06/01 14:43:53;;;;;;;0.90;0.70;;;25.30;44.20;;;;;;4976828;28;20457;-72
2022/06/01 14:46:21;;;;;;;0.90;0.60;;;25.50;43.00;;;;;;4976689;28;20507;-72
2022/06/01 14:48:48;;;;;;;0.70;0.60;;;25.90;42.90;;;;;;4976657;28;20490;-71
2022/06/01 14:51:16;;;;;;;0.70;0.53;;;25.80;41.50;;;;;;4976323;28;20925;-72
2022/06/01 14:53:44;;;;;;;0.70;0.50;;;25.80;41.90;;;;;;4976623;28;20481;-72
2022/06/01 14:56:12;;;;;;;0.60;0.50;;;25.90;42.90;;;;;;4976460;28;20470;-72
2022/06/01 14:58:38;;;;;;;0.70;0.60;;;26.00;41.70;;;;;;4975037;28;20929;-73
2022/06/01 15:01:08;;;;;;;0.67;0.50;;;25.90;41.90;;;;;;4976158;28;20485;-72
2022/06/01 15:03:39;;;;;;;0.70;0.60;;;25.90;41.40;;;;;;4976536;28;20446;-72
2022/06/01 15:06:06;;;;;;;0.70;0.50;;;25.80;41.30;;;;;;4976386;28;20520;-72
2022/06/01 15:08:33;;;;;;;0.70;0.57;;;25.40;41.00;;;;;;4976244;28;20481;-72
2022/06/01 15:11:00;;;;;;;0.67;0.50;;;25.00;42.10;;;;;;4976320;28;20496;-71
2022/06/01 15:13:27;;;;;;;0.60;0.50;;;24.80;42.90;;;;;;4976315;28;20504;-72
2022/06/01 15:15:54;;;;;;;0.70;0.50;;;25.10;43.10;;;;;;5000178;23;20497;-68
2022/06/01 15:18:21;;;;;;;0.70;0.60;;;25.10;43.10;;;;;;4975937;28;20446;-69
2022/06/01 15:20:50;;;;;;;0.70;0.60;;;25.10;41.70;;;;;;4975893;28;20450;-70
2022/06/01 15:23:18;;;;;;;0.80;0.60;;;24.90;43.60;;;;;;4975778;28;20446;-69
2022/06/01 15:25:45;;;;;;;0.60;0.53;;;25.10;43.00;;;;;;4975423;28;21020;-69
2022/06/01 15:28:12;;;;;;;0.77;0.60;;;25.30;42.80;;;;;;4975532;28;20485;-69
2022/06/01 15:41:38;;;;;;;0.60;0.50;;;25.40;42.50;;;;;;4975570;28;20406;-69
2022/06/01 15:44:05;;;;;;;0.60;0.50;;;25.20;42.30;;;;;;4975199;28;20981;-69
2022/06/01 15:46:34;;;;;;;0.67;0.57;;;25.10;43.00;;;;;;4975333;28;20505;-71
2022/06/01 15:49:02;;;;;;;0.60;0.50;;;25.30;43.00;;;;;;4975380;28;20481;-69
2022/06/01 15:51:31;;;;;;;0.70;0.60;;;25.40;42.10;;;;;;4975040;28;20453;-70
2022/06/01 15:53:58;;;;;;;0.67;0.50;;;25.20;42.80;;;;;;4975196;28;20798;-69
2022/06/01 15:56:25;;;;;;;0.70;0.60;;;25.40;42.10;;;;;;4975170;28;20470;-70
2022/06/01 15:58:52;;;;;;;2.40;0.60;;;25.50;43.00;;;;;;4974895;28;20825;-69
2022/06/01 16:01:19;;;;;;;0.60;0.50;;;25.90;42.60;;;;;;4975059;28;20524;-69
2022/06/01 16:03:47;;;;;;;0.60;0.50;;;25.90;41.90;;;;;;4975015;28;20501;-69
2022/06/01 16:06:15;;;;;;;0.70;0.60;;;26.00;41.60;;;;;;4974603;28;21009;-70
2022/06/01 16:08:44;;;;;;;1.03;0.60;;;26.20;42.10;;;;;;4974847;28;20477;-70
2022/06/01 16:11:15;;;;;;;0.70;0.60;;;26.20;41.90;;;;;;4974956;28;20453;-69
2022/06/01 16:13:42;;;;;;;0.70;0.60;;;26.10;42.20;;;;;;4975186;28;20884;-69
2022/06/01 16:16:10;;;;;;;1.13;0.70;;;26.20;42.50;;;;;;4974516;28;20481;-70
2022/06/01 16:18:37;;;;;;;0.70;0.60;;;26.30;43.20;;;;;;4975009;28;20442;-69
2022/06/01 16:21:04;;;;;;;0.70;0.60;;;26.50;42.70;;;;;;4974701;28;20504;-70
2022/06/01 16:23:31;;;;;;;0.70;0.70;;;26.40;41.70;;;;;;4974767;28;20545;-69
2022/06/01 16:25:59;;;;;;;0.83;0.60;;;26.20;41.40;;;;;;4974822;28;20478;-69
2022/06/01 16:28:26;;;;;;;0.60;0.50;;;26.00;42.00;;;;;;4974724;28;20578;-70
2022/06/01 16:30:53;;;;;;;0.70;0.50;;;25.90;42.20;;;;;;4974759;28;20541;-70
2022/06/01 16:33:26;;;;;;;0.70;0.60;;;25.90;42.30;;;;;;4974550;28;21014;-70
2022/06/01 16:35:53;;;;;;;0.70;0.60;;;25.80;42.40;;;;;;4974670;28;20549;-70
2022/06/01 16:38:20;;;;;;;1.00;0.60;;;25.70;42.80;;;;;;4974561;28;20549;-71
2022/06/01 16:40:47;;;;;;;0.70;0.50;;;25.50;42.90;;;;;;4974628;28;20499;-70
2022/06/01 16:43:16;;;;;;;1.83;0.50;;;25.30;42.90;;;;;;4974423;28;20537;-70
2022/06/01 16:45:43;;;;;;;0.80;0.60;;;25.10;43.30;;;;;;4975014;28;20560;-70